sensor_id;sensor_type;location;lat;lon;timestamp;P1;durP1;ratioP1;P2;durP2;ratioP2
51006;SDS011;37034;47.886;-3.904;2022-12-17T00:01:14;14.30;;;3.42;;
51006;SDS011;37034;47.886;-3.904;2022-12-17T00:03:58;15.23;;;4.10;;
51006;SDS011;37034;47.886;-3.904;2022-12-17T00:06:42;17.70;;;4.50;;
51006;SDS011;37034;47.886;-3.904;2022-12-17T00:09:27;17.45;;;4.10;;
51006;SDS011;37034;47.886;-3.904;2022-12-17T00:12:11;16.52;;;4.60;;
51006;SDS011;37034;47.886;-3.904;2022-12-17T00:14:55;18.42;;;5.57;;
51006;SDS011;37034;47.886;-3.904;2022-12-17T00:17:39;22.17;;;6.05;;
51006;SDS011;37034;47.886;-3.904;2022-12-17T00:20:23;16.02;;;4.15;;
51006;SDS011;37034;47.886;-3.904;2022-12-17T00:23:07;14.82;;;3.92;;
51006;SDS011;37034;47.886;-3.904;2022-12-17T00:25:52;15.73;;;3.70;;
51006;SDS011;37034;47.886;-3.904;2022-12-17T00:28:38;22.63;;;4.57;;
51006;SDS011;37034;47.886;-3.904;2022-12-17T00:31:22;24.23;;;5.25;;
51006;SDS011;37034;47.886;-3.904;2022-12-17T00:34:09;12.70;;;3.60;;
51006;SDS011;37034;47.886;-3.904;2022-12-17T00:36:53;16.50;;;4.55;;
51006;SDS011;37034;47.886;-3.904;2022-12-17T00:39:37;18.13;;;4.47;;
51006;SDS011;37034;47.886;-3.904;2022-12-17T00:42:21;19.00;;;3.88;;
51006;SDS011;37034;47.886;-3.904;2022-12-17T00:45:05;15.45;;;4.45;;
51006;SDS011;37034;47.886;-3.904;2022-12-17T00:47:50;16.70;;;4.13;;
51006;SDS011;37034;47.886;-3.904;2022-12-17T00:50:34;19.63;;;4.30;;
51006;SDS011;37034;47.886;-3.904;2022-12-17T00:53:18;20.92;;;4.30;;
51006;SDS011;37034;47.886;-3.904;2022-12-17T00:56:02;18.58;;;4.13;;
51006;SDS011;37034;47.886;-3.904;2022-12-17T00:58:46;14.40;;;4.20;;
51006;SDS011;37034;47.886;-3.904;2022-12-17T01:01:30;17.77;;;5.15;;
51006;SDS011;37034;47.886;-3.904;2022-12-17T01:04:14;18.42;;;4.13;;
51006;SDS011;37034;47.886;-3.904;2022-12-17T01:06:58;17.65;;;4.05;;
51006;SDS011;37034;47.886;-3.904;2022-12-17T01:09:42;17.70;;;4.28;;
51006;SDS011;37034;47.886;-3.904;2022-12-17T01:12:26;17.20;;;4.43;;
51006;SDS011;37034;47.886;-3.904;2022-12-17T01:15:11;15.00;;;4.15;;
51006;SDS011;37034;47.886;-3.904;2022-12-17T01:17:55;21.73;;;4.03;;
51006;SDS011;37034;47.886;-3.904;2022-12-17T01:20:39;11.70;;;3.65;;
51006;SDS011;37034;47.886;-3.904;2022-12-17T01:23:23;17.77;;;4.55;;
51006;SDS011;37034;47.886;-3.904;2022-12-17T01:26:07;22.95;;;4.85;;
51006;SDS011;37034;47.886;-3.904;2022-12-17T01:28:51;16.98;;;4.25;;
51006;SDS011;37034;47.886;-3.904;2022-12-17T01:31:36;14.40;;;4.35;;
51006;SDS011;37034;47.886;-3.904;2022-12-17T01:34:20;16.48;;;4.28;;
51006;SDS011;37034;47.886;-3.904;2022-12-17T01:37:04;13.55;;;4.90;;
51006;SDS011;37034;47.886;-3.904;2022-12-17T01:39:48;16.73;;;5.30;;
51006;SDS011;37034;47.886;-3.904;2022-12-17T01:42:39;19.45;;;5.45;;
51006;SDS011;37034;47.886;-3.904;2022-12-17T01:45:37;20.48;;;4.93;;
51006;SDS011;37034;47.886;-3.904;2022-12-17T01:51:12;16.35;;;4.07;;
51006;SDS011;37034;47.886;-3.904;2022-12-17T01:53:57;13.52;;;3.80;;
51006;SDS011;37034;47.886;-3.904;2022-12-17T01:56:44;16.00;;;4.43;;
51006;SDS011;37034;47.886;-3.904;2022-12-17T01:59:33;14.82;;;4.38;;
51006;SDS011;37034;47.886;-3.904;2022-12-17T02:02:25;12.30;;;4.45;;
51006;SDS011;37034;47.886;-3.904;2022-12-17T02:05:09;19.10;;;5.15;;
51006;SDS011;37034;47.886;-3.904;2022-12-17T02:10:56;19.55;;;4.60;;
51006;SDS011;37034;47.886;-3.904;2022-12-17T02:14:31;17.10;;;4.03;;
51006;SDS011;37034;47.886;-3.904;2022-12-17T02:17:07;15.52;;;5.15;;
51006;SDS011;37034;47.886;-3.904;2022-12-17T02:23:04;17.80;;;4.68;;
51006;SDS011;37034;47.886;-3.904;2022-12-17T02:26:03;15.27;;;4.65;;
51006;SDS011;37034;47.886;-3.904;2022-12-17T02:28:49;14.27;;;4.30;;
51006;SDS011;37034;47.886;-3.904;2022-12-17T02:31:35;13.80;;;4.45;;
51006;SDS011;37034;47.886;-3.904;2022-12-17T02:34:22;11.40;;;3.83;;
51006;SDS011;37034;47.886;-3.904;2022-12-17T02:37:06;19.23;;;4.53;;
51006;SDS011;37034;47.886;-3.904;2022-12-17T02:39:50;15.10;;;5.20;;
51006;SDS011;37034;47.886;-3.904;2022-12-17T02:42:34;21.92;;;5.80;;
51006;SDS011;37034;47.886;-3.904;2022-12-17T02:45:39;18.02;;;4.63;;
51006;SDS011;37034;47.886;-3.904;2022-12-17T02:48:23;14.93;;;4.90;;
51006;SDS011;37034;47.886;-3.904;2022-12-17T02:51:08;13.93;;;5.00;;
51006;SDS011;37034;47.886;-3.904;2022-12-17T02:53:53;18.40;;;4.95;;
51006;SDS011;37034;47.886;-3.904;2022-12-17T02:56:37;15.20;;;4.90;;
51006;SDS011;37034;47.886;-3.904;2022-12-17T02:59:21;14.07;;;4.93;;
51006;SDS011;37034;47.886;-3.904;2022-12-17T03:02:05;19.55;;;4.80;;
51006;SDS011;37034;47.886;-3.904;2022-12-17T03:04:50;14.80;;;4.03;;
51006;SDS011;37034;47.886;-3.904;2022-12-17T03:07:34;23.83;;;4.85;;
51006;SDS011;37034;47.886;-3.904;2022-12-17T03:10:18;19.80;;;4.80;;
51006;SDS011;37034;47.886;-3.904;2022-12-17T03:13:02;12.45;;;4.97;;
51006;SDS011;37034;47.886;-3.904;2022-12-17T03:15:46;16.42;;;4.50;;
51006;SDS011;37034;47.886;-3.904;2022-12-17T03:18:30;11.40;;;4.30;;
51006;SDS011;37034;47.886;-3.904;2022-12-17T03:21:14;10.63;;;4.28;;
51006;SDS011;37034;47.886;-3.904;2022-12-17T03:23:58;15.60;;;4.35;;
51006;SDS011;37034;47.886;-3.904;2022-12-17T03:26:43;13.93;;;5.00;;
51006;SDS011;37034;47.886;-3.904;2022-12-17T03:29:27;13.07;;;4.47;;
51006;SDS011;37034;47.886;-3.904;2022-12-17T03:32:11;15.05;;;4.72;;
51006;SDS011;37034;47.886;-3.904;2022-12-17T03:34:55;16.73;;;4.63;;
51006;SDS011;37034;47.886;-3.904;2022-12-17T03:37:39;14.82;;;4.55;;
51006;SDS011;37034;47.886;-3.904;2022-12-17T03:40:23;11.73;;;5.22;;
51006;SDS011;37034;47.886;-3.904;2022-12-17T03:43:07;19.55;;;5.03;;
51006;SDS011;37034;47.886;-3.904;2022-12-17T03:45:52;13.45;;;4.78;;
51006;SDS011;37034;47.886;-3.904;2022-12-17T03:48:37;18.27;;;5.28;;
51006;SDS011;37034;47.886;-3.904;2022-12-17T03:51:22;16.23;;;5.03;;
51006;SDS011;37034;47.886;-3.904;2022-12-17T03:54:06;14.82;;;4.82;;
51006;SDS011;37034;47.886;-3.904;2022-12-17T03:56:51;18.63;;;5.57;;
51006;SDS011;37034;47.886;-3.904;2022-12-17T03:59:35;10.90;;;4.88;;
51006;SDS011;37034;47.886;-3.904;2022-12-17T04:02:19;15.85;;;4.90;;
51006;SDS011;37034;47.886;-3.904;2022-12-17T04:05:03;13.88;;;4.70;;
51006;SDS011;37034;47.886;-3.904;2022-12-17T04:07:47;12.93;;;4.88;;
51006;SDS011;37034;47.886;-3.904;2022-12-17T04:10:32;13.73;;;5.10;;
51006;SDS011;37034;47.886;-3.904;2022-12-17T04:13:16;11.75;;;4.20;;
51006;SDS011;37034;47.886;-3.904;2022-12-17T04:16:00;15.90;;;4.88;;
51006;SDS011;37034;47.886;-3.904;2022-12-17T04:18:44;15.23;;;5.63;;
51006;SDS011;37034;47.886;-3.904;2022-12-17T04:21:28;12.38;;;4.75;;
51006;SDS011;37034;47.886;-3.904;2022-12-17T04:24:12;17.83;;;5.07;;
51006;SDS011;37034;47.886;-3.904;2022-12-17T04:26:56;16.48;;;5.82;;
51006;SDS011;37034;47.886;-3.904;2022-12-17T04:29:40;17.83;;;5.65;;
51006;SDS011;37034;47.886;-3.904;2022-12-17T04:32:24;15.90;;;5.47;;
51006;SDS011;37034;47.886;-3.904;2022-12-17T04:35:09;11.40;;;4.93;;
51006;SDS011;37034;47.886;-3.904;2022-12-17T04:37:53;15.82;;;4.95;;
51006;SDS011;37034;47.886;-3.904;2022-12-17T04:40:37;20.42;;;5.70;;
51006;SDS011;37034;47.886;-3.904;2022-12-17T04:43:21;18.55;;;5.63;;
51006;SDS011;37034;47.886;-3.904;2022-12-17T04:46:19;17.75;;;4.95;;
51006;SDS011;37034;47.886;-3.904;2022-12-17T04:49:03;14.88;;;5.32;;
51006;SDS011;37034;47.886;-3.904;2022-12-17T04:51:47;18.52;;;5.85;;
51006;SDS011;37034;47.886;-3.904;2022-12-17T04:54:31;14.52;;;5.50;;
51006;SDS011;37034;47.886;-3.904;2022-12-17T04:57:15;14.27;;;5.00;;
51006;SDS011;37034;47.886;-3.904;2022-12-17T04:59:59;14.20;;;4.55;;
51006;SDS011;37034;47.886;-3.904;2022-12-17T05:02:43;24.02;;;6.07;;
51006;SDS011;37034;47.886;-3.904;2022-12-17T05:05:27;20.05;;;7.07;;
51006;SDS011;37034;47.886;-3.904;2022-12-17T05:08:11;17.05;;;6.45;;
51006;SDS011;37034;47.886;-3.904;2022-12-17T05:11:00;14.95;;;5.03;;
51006;SDS011;37034;47.886;-3.904;2022-12-17T05:13:45;15.27;;;4.97;;
51006;SDS011;37034;47.886;-3.904;2022-12-17T05:16:29;24.98;;;7.13;;
51006;SDS011;37034;47.886;-3.904;2022-12-17T05:19:14;34.42;;;13.15;;
51006;SDS011;37034;47.886;-3.904;2022-12-17T05:21:58;24.90;;;5.57;;
51006;SDS011;37034;47.886;-3.904;2022-12-17T05:24:42;19.30;;;6.93;;
51006;SDS011;37034;47.886;-3.904;2022-12-17T05:27:26;15.32;;;6.07;;
51006;SDS011;37034;47.886;-3.904;2022-12-17T05:30:10;22.08;;;6.53;;
51006;SDS011;37034;47.886;-3.904;2022-12-17T05:32:58;13.18;;;5.10;;
51006;SDS011;37034;47.886;-3.904;2022-12-17T05:35:42;13.68;;;4.43;;
51006;SDS011;37034;47.886;-3.904;2022-12-17T05:38:27;14.13;;;4.30;;
51006;SDS011;37034;47.886;-3.904;2022-12-17T05:41:11;12.43;;;4.47;;
51006;SDS011;37034;47.886;-3.904;2022-12-17T05:43:55;14.55;;;4.85;;
51006;SDS011;37034;47.886;-3.904;2022-12-17T05:46:39;11.50;;;4.28;;
51006;SDS011;37034;47.886;-3.904;2022-12-17T05:49:23;15.55;;;5.72;;
51006;SDS011;37034;47.886;-3.904;2022-12-17T05:52:07;17.17;;;5.57;;
51006;SDS011;37034;47.886;-3.904;2022-12-17T05:54:51;17.88;;;5.00;;
51006;SDS011;37034;47.886;-3.904;2022-12-17T05:57:35;14.00;;;5.05;;
51006;SDS011;37034;47.886;-3.904;2022-12-17T06:00:19;14.07;;;4.72;;
51006;SDS011;37034;47.886;-3.904;2022-12-17T06:03:03;19.50;;;5.78;;
51006;SDS011;37034;47.886;-3.904;2022-12-17T06:05:52;19.73;;;5.05;;
51006;SDS011;37034;47.886;-3.904;2022-12-17T06:08:37;17.05;;;5.63;;
51006;SDS011;37034;47.886;-3.904;2022-12-17T06:11:21;17.52;;;5.97;;
51006;SDS011;37034;47.886;-3.904;2022-12-17T06:14:06;15.30;;;5.78;;
51006;SDS011;37034;47.886;-3.904;2022-12-17T06:16:50;19.23;;;6.32;;
51006;SDS011;37034;47.886;-3.904;2022-12-17T06:19:34;21.48;;;7.97;;
51006;SDS011;37034;47.886;-3.904;2022-12-17T06:22:18;34.70;;;10.13;;
51006;SDS011;37034;47.886;-3.904;2022-12-17T06:25:03;32.78;;;9.63;;
51006;SDS011;37034;47.886;-3.904;2022-12-17T06:27:47;22.10;;;7.53;;
51006;SDS011;37034;47.886;-3.904;2022-12-17T06:30:31;22.40;;;7.63;;
51006;SDS011;37034;47.886;-3.904;2022-12-17T06:33:15;28.17;;;10.88;;
51006;SDS011;37034;47.886;-3.904;2022-12-17T06:35:59;16.83;;;7.10;;
51006;SDS011;37034;47.886;-3.904;2022-12-17T06:38:43;17.27;;;6.15;;
51006;SDS011;37034;47.886;-3.904;2022-12-17T06:41:27;12.15;;;5.18;;
51006;SDS011;37034;47.886;-3.904;2022-12-17T06:44:11;25.67;;;7.03;;
51006;SDS011;37034;47.886;-3.904;2022-12-17T06:46:55;22.25;;;6.72;;
51006;SDS011;37034;47.886;-3.904;2022-12-17T06:49:40;17.20;;;7.00;;
51006;SDS011;37034;47.886;-3.904;2022-12-17T06:52:24;18.70;;;6.63;;
51006;SDS011;37034;47.886;-3.904;2022-12-17T06:55:08;25.02;;;8.48;;
51006;SDS011;37034;47.886;-3.904;2022-12-17T06:57:56;22.48;;;8.43;;
51006;SDS011;37034;47.886;-3.904;2022-12-17T07:00:42;28.92;;;9.30;;
51006;SDS011;37034;47.886;-3.904;2022-12-17T07:03:26;32.20;;;9.77;;
51006;SDS011;37034;47.886;-3.904;2022-12-17T07:06:11;37.42;;;10.77;;
51006;SDS011;37034;47.886;-3.904;2022-12-17T07:08:56;28.25;;;8.98;;
51006;SDS011;37034;47.886;-3.904;2022-12-17T07:11:40;33.83;;;12.98;;
51006;SDS011;37034;47.886;-3.904;2022-12-17T07:14:24;20.55;;;7.95;;
51006;SDS011;37034;47.886;-3.904;2022-12-17T07:17:08;23.15;;;7.90;;
51006;SDS011;37034;47.886;-3.904;2022-12-17T07:19:53;18.85;;;7.47;;
51006;SDS011;37034;47.886;-3.904;2022-12-17T07:22:37;15.30;;;4.93;;
51006;SDS011;37034;47.886;-3.904;2022-12-17T07:25:21;18.23;;;4.90;;
51006;SDS011;37034;47.886;-3.904;2022-12-17T07:28:05;15.65;;;5.38;;
51006;SDS011;37034;47.886;-3.904;2022-12-17T07:30:50;11.65;;;4.82;;
51006;SDS011;37034;47.886;-3.904;2022-12-17T07:33:34;14.45;;;5.85;;
51006;SDS011;37034;47.886;-3.904;2022-12-17T07:36:18;13.95;;;5.28;;
51006;SDS011;37034;47.886;-3.904;2022-12-17T07:39:03;13.32;;;4.88;;
51006;SDS011;37034;47.886;-3.904;2022-12-17T07:41:47;21.15;;;5.80;;
51006;SDS011;37034;47.886;-3.904;2022-12-17T07:44:31;17.85;;;6.28;;
51006;SDS011;37034;47.886;-3.904;2022-12-17T07:47:15;14.05;;;4.65;;
51006;SDS011;37034;47.886;-3.904;2022-12-17T07:49:59;15.52;;;5.90;;
51006;SDS011;37034;47.886;-3.904;2022-12-17T07:52:43;15.10;;;5.05;;
51006;SDS011;37034;47.886;-3.904;2022-12-17T07:55:27;12.27;;;5.30;;
51006;SDS011;37034;47.886;-3.904;2022-12-17T07:58:11;13.70;;;4.85;;
51006;SDS011;37034;47.886;-3.904;2022-12-17T08:00:59;11.32;;;4.80;;
51006;SDS011;37034;47.886;-3.904;2022-12-17T08:03:44;12.85;;;4.97;;
51006;SDS011;37034;47.886;-3.904;2022-12-17T08:06:28;18.60;;;5.75;;
51006;SDS011;37034;47.886;-3.904;2022-12-17T08:09:12;19.05;;;6.63;;
51006;SDS011;37034;47.886;-3.904;2022-12-17T08:11:56;18.08;;;6.88;;
51006;SDS011;37034;47.886;-3.904;2022-12-17T08:14:40;17.63;;;5.63;;
51006;SDS011;37034;47.886;-3.904;2022-12-17T08:17:24;15.38;;;4.88;;
51006;SDS011;37034;47.886;-3.904;2022-12-17T08:20:08;13.15;;;5.47;;
51006;SDS011;37034;47.886;-3.904;2022-12-17T08:22:59;15.63;;;5.95;;
51006;SDS011;37034;47.886;-3.904;2022-12-17T08:25:44;14.65;;;6.15;;
51006;SDS011;37034;47.886;-3.904;2022-12-17T08:28:28;17.25;;;5.63;;
51006;SDS011;37034;47.886;-3.904;2022-12-17T08:31:13;14.40;;;4.93;;
51006;SDS011;37034;47.886;-3.904;2022-12-17T08:33:57;18.63;;;5.72;;
51006;SDS011;37034;47.886;-3.904;2022-12-17T08:36:41;14.13;;;5.22;;
51006;SDS011;37034;47.886;-3.904;2022-12-17T08:39:25;13.35;;;5.32;;
51006;SDS011;37034;47.886;-3.904;2022-12-17T08:42:09;13.95;;;4.45;;
51006;SDS011;37034;47.886;-3.904;2022-12-17T08:44:53;16.23;;;5.40;;
51006;SDS011;37034;47.886;-3.904;2022-12-17T08:47:37;13.82;;;4.57;;
51006;SDS011;37034;47.886;-3.904;2022-12-17T08:50:21;13.80;;;5.30;;
51006;SDS011;37034;47.886;-3.904;2022-12-17T08:53:05;19.23;;;5.00;;
51006;SDS011;37034;47.886;-3.904;2022-12-17T08:55:50;18.27;;;4.90;;
51006;SDS011;37034;47.886;-3.904;2022-12-17T08:58:33;14.02;;;4.93;;
51006;SDS011;37034;47.886;-3.904;2022-12-17T09:01:18;16.42;;;5.50;;
51006;SDS011;37034;47.886;-3.904;2022-12-17T09:04:09;13.82;;;4.78;;
51006;SDS011;37034;47.886;-3.904;2022-12-17T09:06:53;18.40;;;5.30;;
51006;SDS011;37034;47.886;-3.904;2022-12-17T09:09:37;14.98;;;5.63;;
51006;SDS011;37034;47.886;-3.904;2022-12-17T09:12:21;12.65;;;4.38;;
51006;SDS011;37034;47.886;-3.904;2022-12-17T09:15:06;11.23;;;4.50;;
51006;SDS011;37034;47.886;-3.904;2022-12-17T09:17:50;14.07;;;5.05;;
51006;SDS011;37034;47.886;-3.904;2022-12-17T09:20:35;14.05;;;4.75;;
51006;SDS011;37034;47.886;-3.904;2022-12-17T09:23:19;17.73;;;6.57;;
51006;SDS011;37034;47.886;-3.904;2022-12-17T09:26:03;14.52;;;5.82;;
51006;SDS011;37034;47.886;-3.904;2022-12-17T09:28:47;19.15;;;7.10;;
51006;SDS011;37034;47.886;-3.904;2022-12-17T09:31:32;15.45;;;5.45;;
51006;SDS011;37034;47.886;-3.904;2022-12-17T09:34:16;16.30;;;5.82;;
51006;SDS011;37034;47.886;-3.904;2022-12-17T09:37:01;15.55;;;5.47;;
51006;SDS011;37034;47.886;-3.904;2022-12-17T09:39:46;12.45;;;4.75;;
51006;SDS011;37034;47.886;-3.904;2022-12-17T09:42:36;19.15;;;4.90;;
51006;SDS011;37034;47.886;-3.904;2022-12-17T09:45:45;17.17;;;5.20;;
51006;SDS011;37034;47.886;-3.904;2022-12-17T09:48:53;18.10;;;5.72;;
51006;SDS011;37034;47.886;-3.904;2022-12-17T09:51:48;13.80;;;4.55;;
51006;SDS011;37034;47.886;-3.904;2022-12-17T09:54:39;17.25;;;5.43;;
51006;SDS011;37034;47.886;-3.904;2022-12-17T09:57:32;14.07;;;4.88;;
51006;SDS011;37034;47.886;-3.904;2022-12-17T10:03:14;14.23;;;4.88;;
51006;SDS011;37034;47.886;-3.904;2022-12-17T10:06:01;17.73;;;5.45;;
51006;SDS011;37034;47.886;-3.904;2022-12-17T10:08:52;15.02;;;5.55;;
51006;SDS011;37034;47.886;-3.904;2022-12-17T10:11:41;15.30;;;5.68;;
51006;SDS011;37034;47.886;-3.904;2022-12-17T10:14:26;18.13;;;6.00;;
51006;SDS011;37034;47.886;-3.904;2022-12-17T10:17:20;12.45;;;5.18;;
51006;SDS011;37034;47.886;-3.904;2022-12-17T10:23:23;11.10;;;5.18;;
51006;SDS011;37034;47.886;-3.904;2022-12-17T10:26:07;10.85;;;4.38;;
51006;SDS011;37034;47.886;-3.904;2022-12-17T10:28:59;12.45;;;4.90;;
51006;SDS011;37034;47.886;-3.904;2022-12-17T10:32:17;14.95;;;5.18;;
51006;SDS011;37034;47.886;-3.904;2022-12-17T10:38:24;20.58;;;7.32;;
51006;SDS011;37034;47.886;-3.904;2022-12-17T10:41:43;12.43;;;4.65;;
51006;SDS011;37034;47.886;-3.904;2022-12-17T10:44:25;10.25;;;4.80;;
51006;SDS011;37034;47.886;-3.904;2022-12-17T10:47:17;11.05;;;5.32;;
51006;SDS011;37034;47.886;-3.904;2022-12-17T10:50:05;14.52;;;5.18;;
51006;SDS011;37034;47.886;-3.904;2022-12-17T10:52:53;11.05;;;4.65;;
51006;SDS011;37034;47.886;-3.904;2022-12-17T10:55:44;18.52;;;5.13;;
51006;SDS011;37034;47.886;-3.904;2022-12-17T10:58:33;11.65;;;5.20;;
51006;SDS011;37034;47.886;-3.904;2022-12-17T11:01:19;13.20;;;4.60;;
51006;SDS011;37034;47.886;-3.904;2022-12-17T11:10:04;10.30;;;4.63;;
51006;SDS011;37034;47.886;-3.904;2022-12-17T11:12:56;12.02;;;5.28;;
51006;SDS011;37034;47.886;-3.904;2022-12-17T11:15:46;11.65;;;4.45;;
51006;SDS011;37034;47.886;-3.904;2022-12-17T11:25:21;15.10;;;5.57;;
51006;SDS011;37034;47.886;-3.904;2022-12-17T11:28:16;16.73;;;5.68;;
51006;SDS011;37034;47.886;-3.904;2022-12-17T11:37:21;15.00;;;5.43;;
51006;SDS011;37034;47.886;-3.904;2022-12-17T11:40:32;15.63;;;5.90;;
51006;SDS011;37034;47.886;-3.904;2022-12-17T11:50:04;13.85;;;6.32;;
51006;SDS011;37034;47.886;-3.904;2022-12-17T11:53:26;13.48;;;6.25;;
51006;SDS011;37034;47.886;-3.904;2022-12-17T11:58:59;16.23;;;6.40;;
51006;SDS011;37034;47.886;-3.904;2022-12-17T12:02:08;10.45;;;5.25;;
51006;SDS011;37034;47.886;-3.904;2022-12-17T12:05:23;13.20;;;5.68;;
51006;SDS011;37034;47.886;-3.904;2022-12-17T12:08:31;15.35;;;6.40;;
51006;SDS011;37034;47.886;-3.904;2022-12-17T12:11:47;11.70;;;5.22;;
51006;SDS011;37034;47.886;-3.904;2022-12-17T12:17:50;15.13;;;6.32;;
51006;SDS011;37034;47.886;-3.904;2022-12-17T12:27:07;12.68;;;6.07;;
51006;SDS011;37034;47.886;-3.904;2022-12-17T12:33:52;16.90;;;6.60;;
51006;SDS011;37034;47.886;-3.904;2022-12-17T12:36:41;18.65;;;7.50;;
51006;SDS011;37034;47.886;-3.904;2022-12-17T12:39:38;18.25;;;6.75;;
51006;SDS011;37034;47.886;-3.904;2022-12-17T12:42:35;15.93;;;6.47;;
51006;SDS011;37034;47.886;-3.904;2022-12-17T12:48:19;14.23;;;6.70;;
51006;SDS011;37034;47.886;-3.904;2022-12-17T13:03:23;12.80;;;5.97;;
51006;SDS011;37034;47.886;-3.904;2022-12-17T13:06:08;11.93;;;6.43;;
51006;SDS011;37034;47.886;-3.904;2022-12-17T13:08:35;13.60;;;6.88;;
51006;SDS011;37034;47.886;-3.904;2022-12-17T13:11:20;14.43;;;6.97;;
51006;SDS011;37034;47.886;-3.904;2022-12-17T13:13:54;12.55;;;6.25;;
51006;SDS011;37034;47.886;-3.904;2022-12-17T13:16:34;13.80;;;6.20;;
51006;SDS011;37034;47.886;-3.904;2022-12-17T13:19:17;10.95;;;6.50;;
51006;SDS011;37034;47.886;-3.904;2022-12-17T13:21:55;16.65;;;6.35;;
51006;SDS011;37034;47.886;-3.904;2022-12-17T13:24:42;13.52;;;6.18;;
51006;SDS011;37034;47.886;-3.904;2022-12-17T13:29:55;16.48;;;6.50;;
51006;SDS011;37034;47.886;-3.904;2022-12-17T13:32:37;13.52;;;6.82;;
51006;SDS011;37034;47.886;-3.904;2022-12-17T13:35:33;12.30;;;6.35;;
51006;SDS011;37034;47.886;-3.904;2022-12-17T13:41:10;14.93;;;6.53;;
51006;SDS011;37034;47.886;-3.904;2022-12-17T13:43:39;13.27;;;6.20;;
51006;SDS011;37034;47.886;-3.904;2022-12-17T13:46:40;13.30;;;6.32;;
51006;SDS011;37034;47.886;-3.904;2022-12-17T13:52:04;13.57;;;6.55;;
51006;SDS011;37034;47.886;-3.904;2022-12-17T13:54:43;10.95;;;5.78;;
51006;SDS011;37034;47.886;-3.904;2022-12-17T13:57:11;15.33;;;8.00;;
51006;SDS011;37034;47.886;-3.904;2022-12-17T13:59:49;13.90;;;5.75;;
51006;SDS011;37034;47.886;-3.904;2022-12-17T14:04:55;15.13;;;7.05;;
51006;SDS011;37034;47.886;-3.904;2022-12-17T14:07:23;19.48;;;7.15;;
51006;SDS011;37034;47.886;-3.904;2022-12-17T14:09:51;14.73;;;7.03;;
51006;SDS011;37034;47.886;-3.904;2022-12-17T14:12:19;19.02;;;7.57;;
51006;SDS011;37034;47.886;-3.904;2022-12-17T14:17:39;14.52;;;7.63;;
51006;SDS011;37034;47.886;-3.904;2022-12-17T14:20:15;16.48;;;7.22;;
51006;SDS011;37034;47.886;-3.904;2022-12-17T14:22:44;17.63;;;7.68;;
51006;SDS011;37034;47.886;-3.904;2022-12-17T14:25:17;17.13;;;7.53;;
51006;SDS011;37034;47.886;-3.904;2022-12-17T14:27:51;16.65;;;8.05;;
51006;SDS011;37034;47.886;-3.904;2022-12-17T14:30:20;17.77;;;8.20;;
51006;SDS011;37034;47.886;-3.904;2022-12-17T14:32:47;16.85;;;8.23;;
51006;SDS011;37034;47.886;-3.904;2022-12-17T14:35:26;18.47;;;7.97;;
51006;SDS011;37034;47.886;-3.904;2022-12-17T14:37:54;17.52;;;7.85;;
51006;SDS011;37034;47.886;-3.904;2022-12-17T14:40:20;15.93;;;8.35;;
51006;SDS011;37034;47.886;-3.904;2022-12-17T14:42:47;22.38;;;9.60;;
51006;SDS011;37034;47.886;-3.904;2022-12-17T14:47:39;16.47;;;9.10;;
51006;SDS011;37034;47.886;-3.904;2022-12-17T14:50:32;17.75;;;8.90;;
51006;SDS011;37034;47.886;-3.904;2022-12-17T14:53:00;15.80;;;8.13;;
51006;SDS011;37034;47.886;-3.904;2022-12-17T14:55:56;18.63;;;9.35;;
51006;SDS011;37034;47.886;-3.904;2022-12-17T14:58:23;21.38;;;9.48;;
51006;SDS011;37034;47.886;-3.904;2022-12-17T15:01:10;20.83;;;9.80;;
51006;SDS011;37034;47.886;-3.904;2022-12-17T15:03:38;18.08;;;10.40;;
51006;SDS011;37034;47.886;-3.904;2022-12-17T15:06:06;24.50;;;11.93;;
51006;SDS011;37034;47.886;-3.904;2022-12-17T15:08:43;23.42;;;11.18;;
51006;SDS011;37034;47.886;-3.904;2022-12-17T15:11:12;21.65;;;11.82;;
51006;SDS011;37034;47.886;-3.904;2022-12-17T15:13:39;26.00;;;10.60;;
51006;SDS011;37034;47.886;-3.904;2022-12-17T15:16:05;22.15;;;11.02;;
51006;SDS011;37034;47.886;-3.904;2022-12-17T15:18:31;18.98;;;10.75;;
51006;SDS011;37034;47.886;-3.904;2022-12-17T15:20:57;20.80;;;10.43;;
51006;SDS011;37034;47.886;-3.904;2022-12-17T15:23:23;17.48;;;10.05;;
51006;SDS011;37034;47.886;-3.904;2022-12-17T15:25:50;19.85;;;9.85;;
51006;SDS011;37034;47.886;-3.904;2022-12-17T15:28:17;25.23;;;10.18;;
51006;SDS011;37034;47.886;-3.904;2022-12-17T15:30:44;19.45;;;10.70;;
51006;SDS011;37034;47.886;-3.904;2022-12-17T15:33:11;20.83;;;10.60;;
51006;SDS011;37034;47.886;-3.904;2022-12-17T15:35:37;20.98;;;10.48;;
51006;SDS011;37034;47.886;-3.904;2022-12-17T15:40:30;20.27;;;10.55;;
51006;SDS011;37034;47.886;-3.904;2022-12-17T15:42:57;21.90;;;12.18;;
51006;SDS011;37034;47.886;-3.904;2022-12-17T15:45:38;21.63;;;11.10;;
51006;SDS011;37034;47.886;-3.904;2022-12-17T15:48:05;23.15;;;11.23;;
51006;SDS011;37034;47.886;-3.904;2022-12-17T15:50:30;25.13;;;12.00;;
51006;SDS011;37034;47.886;-3.904;2022-12-17T15:52:56;26.60;;;11.97;;
51006;SDS011;37034;47.886;-3.904;2022-12-17T15:55:22;22.63;;;11.70;;
51006;SDS011;37034;47.886;-3.904;2022-12-17T15:57:47;22.23;;;11.80;;
51006;SDS011;37034;47.886;-3.904;2022-12-17T16:00:13;24.57;;;11.50;;
51006;SDS011;37034;47.886;-3.904;2022-12-17T16:02:40;23.45;;;11.38;;
51006;SDS011;37034;47.886;-3.904;2022-12-17T16:05:05;16.63;;;9.32;;
51006;SDS011;37034;47.886;-3.904;2022-12-17T16:07:31;22.83;;;11.50;;
51006;SDS011;37034;47.886;-3.904;2022-12-17T16:09:57;20.77;;;10.77;;
51006;SDS011;37034;47.886;-3.904;2022-12-17T16:12:23;28.20;;;12.20;;
51006;SDS011;37034;47.886;-3.904;2022-12-17T16:14:50;21.80;;;11.50;;
51006;SDS011;37034;47.886;-3.904;2022-12-17T16:17:23;27.08;;;11.10;;
51006;SDS011;37034;47.886;-3.904;2022-12-17T16:20:06;37.78;;;21.15;;
51006;SDS011;37034;47.886;-3.904;2022-12-17T16:22:32;24.85;;;13.48;;
51006;SDS011;37034;47.886;-3.904;2022-12-17T16:24:58;15.97;;;9.27;;
51006;SDS011;37034;47.886;-3.904;2022-12-17T16:27:24;22.93;;;12.33;;
51006;SDS011;37034;47.886;-3.904;2022-12-17T16:29:50;24.87;;;12.17;;
51006;SDS011;37034;47.886;-3.904;2022-12-17T16:32:15;22.37;;;11.97;;
51006;SDS011;37034;47.886;-3.904;2022-12-17T16:34:42;20.00;;;11.13;;
51006;SDS011;37034;47.886;-3.904;2022-12-17T16:37:08;22.00;;;12.00;;
51006;SDS011;37034;47.886;-3.904;2022-12-17T16:39:34;22.65;;;13.82;;
51006;SDS011;37034;47.886;-3.904;2022-12-17T16:42:00;28.27;;;14.17;;
51006;SDS011;37034;47.886;-3.904;2022-12-17T16:44:26;24.90;;;11.70;;
51006;SDS011;37034;47.886;-3.904;2022-12-17T16:46:52;22.40;;;11.90;;
51006;SDS011;37034;47.886;-3.904;2022-12-17T16:49:18;22.70;;;12.20;;
51006;SDS011;37034;47.886;-3.904;2022-12-17T16:51:47;32.15;;;12.13;;
51006;SDS011;37034;47.886;-3.904;2022-12-17T16:54:15;27.52;;;12.80;;
51006;SDS011;37034;47.886;-3.904;2022-12-17T16:56:43;26.80;;;13.10;;
51006;SDS011;37034;47.886;-3.904;2022-12-17T17:01:36;25.45;;;13.30;;
51006;SDS011;37034;47.886;-3.904;2022-12-17T17:04:03;23.27;;;12.60;;
51006;SDS011;37034;47.886;-3.904;2022-12-17T17:06:30;24.05;;;12.85;;
51006;SDS011;37034;47.886;-3.904;2022-12-17T17:08:56;20.73;;;9.75;;
51006;SDS011;37034;47.886;-3.904;2022-12-17T17:11:22;23.90;;;14.47;;
51006;SDS011;37034;47.886;-3.904;2022-12-17T17:13:50;29.10;;;13.45;;
51006;SDS011;37034;47.886;-3.904;2022-12-17T17:16:18;23.30;;;12.77;;
51006;SDS011;37034;47.886;-3.904;2022-12-17T17:18:46;23.02;;;12.70;;
51006;SDS011;37034;47.886;-3.904;2022-12-17T17:21:21;27.83;;;13.82;;
51006;SDS011;37034;47.886;-3.904;2022-12-17T17:23:59;24.95;;;13.45;;